createdAt,value
2022-09-03T00:00:16.217Z,10.67
2022-09-03T00:01:16.241Z,11
2022-09-03T00:02:16.220Z,11
2022-09-03T00:03:16.216Z,11
2022-09-03T00:04:16.214Z,10.56
2022-09-03T00:05:16.205Z,10.67
2022-09-03T00:06:16.214Z,10.39
2022-09-03T00:07:16.219Z,10.56
2022-09-03T00:08:16.225Z,10.39
2022-09-03T00:09:16.215Z,10.56
2022-09-03T00:10:16.258Z,10.56
2022-09-03T00:11:16.220Z,10.56
2022-09-03T00:12:16.217Z,10.11
2022-09-03T00:13:16.216Z,9.67
2022-09-03T00:14:16.224Z,9.94
2022-09-03T00:15:16.223Z,9.67
2022-09-03T00:16:16.335Z,9.67
2022-09-03T00:17:16.223Z,9.67
2022-09-03T00:18:16.219Z,9.94
2022-09-03T00:19:16.218Z,9.67
2022-09-03T00:20:16.224Z,10.11
2022-09-03T00:21:16.226Z,10.11
2022-09-03T00:22:16.224Z,10.22
2022-09-03T00:23:16.228Z,10.22
2022-09-03T00:24:16.224Z,10.11
2022-09-03T00:25:16.226Z,9.78
2022-09-03T00:26:16.229Z,10.11
2022-09-03T00:27:16.233Z,10.11
2022-09-03T00:28:16.243Z,10.11
2022-09-03T00:29:16.239Z,9.94
2022-09-03T00:30:17.220Z,9.78
2022-09-03T00:31:16.296Z,9.67
2022-09-03T00:32:16.244Z,9.78
2022-09-03T00:33:16.251Z,9.67
2022-09-03T00:34:16.243Z,9.94
2022-09-03T00:35:16.256Z,9.94
2022-09-03T00:36:16.256Z,9.94
2022-09-03T00:37:16.248Z,10.22
2022-09-03T00:38:16.251Z,10.11
2022-09-03T00:39:16.349Z,10.56
2022-09-03T00:40:16.260Z,10.39
2022-09-03T00:41:16.262Z,10.56
2022-09-03T00:42:16.265Z,10.39
2022-09-03T00:43:16.262Z,10.56
2022-09-03T00:44:16.262Z,10.22
2022-09-03T00:45:16.266Z,10.56
2022-09-03T00:46:16.284Z,9.94
2022-09-03T00:47:16.271Z,10.11
2022-09-03T00:48:17.344Z,10.11
2022-09-03T00:49:16.276Z,10.11
2022-09-03T00:50:16.277Z,10.11
2022-09-03T00:51:16.277Z,10.11
2022-09-03T00:52:16.281Z,9.39
2022-09-03T00:53:16.273Z,9.67
2022-09-03T00:54:16.278Z,9.39
2022-09-03T00:55:16.279Z,10.11
2022-09-03T00:56:16.281Z,10.11
2022-09-03T00:57:16.278Z,10.11
2022-09-03T00:58:16.285Z,9.78
2022-09-03T00:59:16.275Z,9.78
2022-09-03T01:00:16.279Z,10.11
2022-09-03T01:01:16.388Z,10.11
2022-09-03T01:02:16.378Z,10.39
2022-09-03T01:03:16.287Z,10.11
2022-09-03T01:04:16.289Z,10.22
2022-09-03T01:05:16.288Z,10.39
2022-09-03T01:06:16.293Z,9.78
2022-09-03T01:07:16.290Z,10.22
2022-09-03T01:08:16.293Z,9.78
2022-09-03T01:09:16.283Z,10.11
2022-09-03T01:10:16.293Z,9.94
2022-09-03T01:11:16.286Z,9.94
2022-09-03T01:12:16.300Z,9.94
2022-09-03T01:13:16.286Z,9.78
2022-09-03T01:14:16.296Z,10.11
2022-09-03T01:15:16.288Z,9.67
2022-09-03T01:16:16.343Z,9.94
2022-09-03T01:17:16.297Z,9.78
2022-09-03T01:18:16.308Z,10.11
2022-09-03T01:19:16.298Z,9.94
2022-09-03T01:20:16.298Z,9.94
2022-09-03T01:21:16.310Z,10.22
2022-09-03T01:22:16.305Z,9.94
2022-09-03T01:23:16.301Z,9.67
2022-09-03T01:24:16.312Z,9.94
2022-09-03T01:25:16.308Z,9.67
2022-09-03T01:26:16.307Z,9.67
2022-09-03T01:27:16.311Z,9.39
2022-09-03T01:28:16.314Z,9.78
2022-09-03T01:29:16.322Z,10.11
2022-09-03T01:30:16.316Z,10.11
2022-09-03T01:31:16.361Z,9.94
2022-09-03T01:32:16.322Z,10.11
2022-09-03T01:33:16.324Z,9.94
2022-09-03T01:34:16.324Z,9.67
2022-09-03T01:35:16.367Z,9.94
2022-09-03T01:36:16.326Z,9.94
2022-09-03T01:37:16.328Z,10.11
2022-09-03T01:38:16.333Z,10.11
2022-09-03T01:39:16.382Z,9.94
2022-09-03T01:40:16.325Z,10.11
2022-09-03T01:41:16.327Z,9.78
2022-09-03T01:42:20.295Z,10.11
2022-09-03T01:43:16.340Z,10.11
2022-09-03T01:44:16.337Z,9.78
2022-09-03T01:45:16.331Z,9.67
2022-09-03T01:46:16.975Z,9.5
2022-09-03T01:47:16.337Z,9.67
2022-09-03T01:48:16.341Z,9.67
2022-09-03T01:49:16.329Z,9.67
2022-09-03T01:50:16.332Z,9.67
2022-09-03T01:51:16.338Z,9.67
2022-09-03T01:52:16.333Z,9.67
2022-09-03T01:53:16.348Z,9.67
2022-09-03T01:54:18.181Z,9.67
2022-09-03T01:55:16.333Z,9.67
2022-09-03T01:56:16.348Z,9.5
2022-09-03T01:57:19.179Z,9.39
2022-09-03T01:58:16.353Z,9.5
2022-09-03T01:59:16.353Z,9.67
2022-09-03T02:00:16.354Z,9.67
2022-09-03T02:01:16.444Z,9.22
2022-09-03T02:02:16.382Z,9.5
2022-09-03T02:03:16.352Z,9.39
2022-09-03T02:04:16.356Z,9.39
2022-09-03T02:05:16.359Z,9.39
2022-09-03T02:06:16.355Z,9.22
2022-09-03T02:07:16.366Z,9.39
2022-09-03T02:08:16.357Z,9.67
2022-09-03T02:09:16.358Z,9.78
2022-09-03T02:10:16.368Z,9.67
2022-09-03T02:11:16.366Z,9.78
2022-09-03T02:12:16.364Z,9.67
2022-09-03T02:13:16.361Z,9.67
2022-09-03T02:14:16.363Z,9.5
2022-09-03T02:15:16.368Z,9.67
2022-09-03T02:16:16.435Z,9.78
2022-09-03T02:17:16.368Z,9.78
2022-09-03T02:18:16.373Z,9.78
2022-09-03T02:19:16.377Z,9.78
2022-09-03T02:20:16.363Z,9.78
2022-09-03T02:21:16.371Z,10.11
2022-09-03T02:22:16.367Z,10.11
2022-09-03T02:23:16.374Z,10.11
2022-09-03T02:24:16.376Z,9.94
2022-09-03T02:25:16.377Z,9.78
2022-09-03T02:26:16.379Z,10.22
2022-09-03T02:27:16.385Z,10.22
2022-09-03T02:28:17.510Z,10.11
2022-09-03T02:29:16.379Z,10.11
2022-09-03T02:30:16.379Z,10.11
2022-09-03T02:31:16.465Z,10.11
2022-09-03T02:32:16.382Z,9.78
2022-09-03T02:33:16.374Z,9.94
2022-09-03T02:34:16.375Z,9.67
2022-09-03T02:35:16.380Z,9.67
2022-09-03T02:36:16.387Z,9.78
2022-09-03T02:37:16.386Z,10.11
2022-09-03T02:38:16.399Z,10.11
2022-09-03T02:39:16.455Z,10.11
2022-09-03T02:40:16.384Z,10.11
2022-09-03T02:41:16.387Z,10.39
2022-09-03T02:42:16.388Z,10.11
2022-09-03T02:43:16.381Z,10.11
2022-09-03T02:44:16.384Z,10.11
2022-09-03T02:45:16.392Z,10.11
2022-09-03T02:46:16.435Z,10.39
2022-09-03T02:47:16.383Z,9.94
2022-09-03T02:48:16.389Z,9.94
2022-09-03T02:49:16.388Z,10.22
2022-09-03T02:50:16.389Z,10.11
2022-09-03T02:51:16.389Z,10.22
2022-09-03T02:52:16.389Z,9.94
2022-09-03T02:53:16.389Z,9.94
2022-09-03T02:54:20.314Z,9.67
2022-09-03T02:55:16.391Z,9.94
2022-09-03T02:56:16.396Z,9.78
2022-09-03T02:57:16.398Z,9.94
2022-09-03T02:58:16.407Z,10.11
2022-09-03T02:59:16.386Z,9.94
2022-09-03T03:00:16.399Z,10.11
2022-09-03T03:01:19.751Z,9.67
2022-09-03T03:02:16.496Z,9.78
2022-09-03T03:03:16.400Z,9.67
2022-09-03T03:04:16.394Z,9.5
2022-09-03T03:05:16.401Z,9.22
2022-09-03T03:06:16.397Z,9.39
2022-09-03T03:07:16.411Z,9.67
2022-09-03T03:08:16.456Z,9.22
2022-09-03T03:09:16.404Z,9.22
2022-09-03T03:10:16.416Z,9.22
2022-09-03T03:11:16.419Z,9.5
2022-09-03T03:12:16.411Z,9.39
2022-09-03T03:13:16.416Z,9.67
2022-09-03T03:14:16.405Z,9.5
2022-09-03T03:15:16.397Z,9.39
2022-09-03T03:16:16.468Z,9.39
2022-09-03T03:17:16.412Z,9.22
2022-09-03T03:18:16.399Z,9.22
2022-09-03T03:19:16.409Z,9.67
2022-09-03T03:20:16.403Z,9.67
2022-09-03T03:21:16.402Z,9.39
2022-09-03T03:22:16.407Z,9.22
2022-09-03T03:23:16.415Z,9.06
2022-09-03T03:24:16.408Z,9.22
2022-09-03T03:25:16.408Z,9.22
2022-09-03T03:26:16.411Z,9.06
2022-09-03T03:27:16.408Z,9.5
2022-09-03T03:28:16.423Z,9.22
2022-09-03T03:29:16.407Z,9.67
2022-09-03T03:30:16.404Z,9.39
2022-09-03T03:31:16.458Z,9.5
2022-09-03T03:32:16.411Z,9.22
2022-09-03T03:33:16.422Z,9.5
2022-09-03T03:34:16.417Z,9.67
2022-09-03T03:35:16.416Z,9.78
2022-09-03T03:36:16.414Z,9.94
2022-09-03T03:37:16.420Z,9.78
2022-09-03T03:38:16.420Z,9.5
2022-09-03T03:39:16.598Z,9.67
2022-09-03T03:40:16.423Z,9.39
2022-09-03T03:41:16.418Z,9.67
2022-09-03T03:42:16.431Z,9.67
2022-09-03T03:43:16.430Z,9.67
2022-09-03T03:44:16.434Z,9.67
2022-09-03T03:45:16.434Z,10.11
2022-09-03T03:46:16.468Z,9.94
2022-09-03T03:47:16.441Z,10.11
2022-09-03T03:48:16.440Z,9.94
2022-09-03T03:49:16.438Z,10.11
2022-09-03T03:50:16.441Z,10.11
2022-09-03T03:51:16.441Z,9.94
2022-09-03T03:52:16.444Z,9.78
2022-09-03T03:53:16.447Z,10.11
2022-09-03T03:54:17.457Z,10.11
2022-09-03T03:55:16.445Z,9.78
2022-09-03T03:56:16.447Z,9.94
2022-09-03T03:57:16.452Z,9.78
2022-09-03T03:58:16.444Z,9.78
2022-09-03T03:59:16.441Z,9.22
2022-09-03T04:00:16.458Z,9.67
2022-09-03T04:01:16.529Z,9.67
2022-09-03T04:02:16.473Z,9.67
2022-09-03T04:03:16.458Z,9.67
2022-09-03T04:04:16.453Z,9.67
2022-09-03T04:05:16.442Z,9.78
2022-09-03T04:06:16.455Z,9.5
2022-09-03T04:07:16.456Z,9.67
2022-09-03T04:08:16.465Z,9.67
2022-09-03T04:09:16.462Z,9.67
2022-09-03T04:10:16.467Z,9.5
2022-09-03T04:11:16.459Z,9.5
2022-09-03T04:12:16.469Z,9.67
2022-09-03T04:13:16.466Z,9.22
2022-09-03T04:14:16.465Z,9.5
2022-09-03T04:15:16.480Z,9.22
2022-09-03T04:16:16.567Z,9.67
2022-09-03T04:17:16.479Z,9.67
2022-09-03T04:18:16.479Z,9.67
2022-09-03T04:19:16.474Z,9.39
2022-09-03T04:20:16.480Z,9.78
2022-09-03T04:21:16.470Z,9.78
2022-09-03T04:22:16.481Z,9.94
2022-09-03T04:23:16.474Z,9.67
2022-09-03T04:24:16.476Z,9.78
2022-09-03T04:25:16.481Z,9.67
2022-09-03T04:26:16.481Z,9.5
2022-09-03T04:27:16.480Z,9.22
2022-09-03T04:28:16.483Z,9.67
2022-09-03T04:29:16.476Z,10.11
2022-09-03T04:30:16.488Z,9.94
2022-09-03T04:31:16.590Z,9.94
2022-09-03T04:32:16.484Z,10.11
2022-09-03T04:33:16.542Z,10.22
2022-09-03T04:34:16.491Z,10.11
2022-09-03T04:35:16.499Z,9.67
2022-09-03T04:36:16.503Z,10.11
2022-09-03T04:37:16.499Z,10.11
2022-09-03T04:38:16.507Z,10.11
2022-09-03T04:39:16.547Z,10.39
2022-09-03T04:40:16.504Z,9.67
2022-09-03T04:41:16.501Z,9.78
2022-09-03T04:42:16.510Z,9.67
2022-09-03T04:43:16.509Z,9.67
2022-09-03T04:44:16.518Z,9.78
2022-09-03T04:45:16.513Z,9.94
2022-09-03T04:46:18.319Z,9.78
2022-09-03T04:47:16.514Z,9.78
2022-09-03T04:48:16.524Z,9.78
2022-09-03T04:49:16.517Z,9.67
2022-09-03T04:50:16.526Z,9.67
2022-09-03T04:51:16.515Z,9.5
2022-09-03T04:52:16.540Z,9.5
2022-09-03T04:53:16.525Z,9.5
2022-09-03T04:54:16.522Z,9.06
2022-09-03T04:55:16.537Z,9.39
2022-09-03T04:56:16.538Z,9.5
2022-09-03T04:57:16.529Z,9.67
2022-09-03T04:58:16.599Z,9.78
2022-09-03T04:59:16.518Z,10.11
2022-09-03T05:00:16.544Z,9.94
2022-09-03T05:01:16.597Z,9.78
2022-09-03T05:02:16.623Z,10.11
2022-09-03T05:03:16.539Z,9.94
2022-09-03T05:04:16.558Z,9.67
2022-09-03T05:05:16.539Z,10.11
2022-09-03T05:06:16.550Z,10.11
2022-09-03T05:07:16.541Z,10.22
2022-09-03T05:08:16.555Z,9.78
2022-09-03T05:09:16.555Z,10.11
2022-09-03T05:10:16.555Z,10.22
2022-09-03T05:11:16.561Z,10.22
2022-09-03T05:12:16.554Z,10.39
2022-09-03T05:13:16.551Z,10.56
2022-09-03T05:14:16.548Z,10.39
2022-09-03T05:15:16.545Z,10.56
2022-09-03T05:16:16.616Z,10.56
2022-09-03T05:17:16.558Z,10.39
2022-09-03T05:18:16.556Z,10.56
2022-09-03T05:19:16.554Z,10.22
2022-09-03T05:20:16.558Z,10.39
2022-09-03T05:21:16.559Z,10.39
2022-09-03T05:22:16.560Z,10.56
2022-09-03T05:23:16.554Z,10.83
2022-09-03T05:24:16.557Z,10.83
2022-09-03T05:25:16.557Z,11
2022-09-03T05:26:16.567Z,11
2022-09-03T05:27:16.561Z,11.28
2022-09-03T05:28:16.561Z,11
2022-09-03T05:29:16.565Z,11.44
2022-09-03T05:30:16.565Z,11.44
2022-09-03T05:31:16.712Z,11.61
2022-09-03T05:32:16.573Z,11.44
2022-09-03T05:33:16.559Z,11.44
2022-09-03T05:34:18.415Z,11.44
2022-09-03T05:35:16.562Z,11.83
2022-09-03T05:36:16.575Z,11.44
2022-09-03T05:37:16.575Z,11.28
2022-09-03T05:38:16.632Z,11.61
2022-09-03T05:39:16.624Z,11.72
2022-09-03T05:40:16.578Z,11.72
2022-09-03T05:41:16.573Z,11.72
2022-09-03T05:42:16.576Z,11.61
2022-09-03T05:43:16.578Z,11.72
2022-09-03T05:44:16.574Z,11.83
2022-09-03T05:45:16.575Z,11.83
2022-09-03T05:46:16.572Z,11.72
2022-09-03T05:47:16.577Z,11.83
2022-09-03T05:48:16.583Z,11.83
2022-09-03T05:49:16.582Z,11.83
2022-09-03T05:50:16.589Z,11.83
2022-09-03T05:51:16.610Z,11.61
2022-09-03T05:52:16.586Z,11.61
2022-09-03T05:53:16.587Z,11.83
2022-09-03T05:54:16.590Z,11.72
2022-09-03T05:55:16.579Z,11.61
2022-09-03T05:56:16.594Z,11.28
2022-09-03T05:57:16.590Z,11.44
2022-09-03T05:58:16.591Z,11.61
2022-09-03T05:59:16.596Z,11.28
2022-09-03T06:00:16.596Z,11.72
2022-09-03T06:01:16.593Z,11.83
2022-09-03T06:02:16.659Z,11.72
2022-09-03T06:03:16.730Z,11.61
2022-09-03T06:04:16.596Z,11.72
2022-09-03T06:05:16.594Z,11.94
2022-09-03T06:06:16.601Z,11.83
2022-09-03T06:07:16.599Z,11.83
2022-09-03T06:08:16.593Z,11.83
2022-09-03T06:09:16.601Z,11.94
2022-09-03T06:10:16.607Z,11.94
2022-09-03T06:11:16.601Z,11.83
2022-09-03T06:12:16.603Z,11.83
2022-09-03T06:13:16.606Z,11.94
2022-09-03T06:14:16.609Z,11.72
2022-09-03T06:15:16.608Z,12.11
2022-09-03T06:16:16.657Z,12.28
2022-09-03T06:17:16.609Z,12.28
2022-09-03T06:18:16.608Z,12.28
2022-09-03T06:19:16.617Z,12.44
2022-09-03T06:20:16.611Z,12.28
2022-09-03T06:21:16.625Z,12.28
2022-09-03T06:22:16.620Z,12.11
2022-09-03T06:23:16.620Z,12.28
2022-09-03T06:24:16.622Z,12.44
2022-09-03T06:25:16.623Z,12.28
2022-09-03T06:26:16.626Z,12.28
2022-09-03T06:27:16.616Z,12.28
2022-09-03T06:28:16.619Z,12.28
2022-09-03T06:29:16.626Z,13.17
2022-09-03T06:30:16.631Z,14.56
2022-09-03T06:31:16.656Z,14.89
2022-09-03T06:32:16.631Z,13.17
2022-09-03T06:33:16.628Z,13.94
2022-09-03T06:34:16.628Z,14.56
2022-09-03T06:35:16.623Z,16.06
2022-09-03T06:36:16.628Z,17.44
2022-09-03T06:37:16.636Z,19.28
2022-09-03T06:38:16.640Z,19.56
2022-09-03T06:39:16.749Z,18.56
2022-09-03T06:40:16.633Z,17.28
2022-09-03T06:41:16.630Z,15.89
2022-09-03T06:42:16.651Z,14.89
2022-09-03T06:43:16.643Z,15
2022-09-03T06:44:16.634Z,15.22
2022-09-03T06:45:16.649Z,15
2022-09-03T06:46:16.729Z,14.39
2022-09-03T06:47:16.643Z,14.39
2022-09-03T06:48:16.667Z,15.56
2022-09-03T06:49:16.628Z,15.39
2022-09-03T06:50:16.645Z,15.39
2022-09-03T06:51:16.645Z,15.39
2022-09-03T06:52:16.649Z,16.06
2022-09-03T06:53:16.642Z,18.28
2022-09-03T06:54:16.659Z,18.28
2022-09-03T06:55:16.641Z,18.78
2022-09-03T06:56:16.652Z,17.28
2022-09-03T06:57:16.652Z,16.39
2022-09-03T06:58:16.655Z,15.72
2022-09-03T06:59:16.667Z,15.89
2022-09-03T07:00:16.689Z,15.89
2022-09-03T07:01:16.784Z,17.44
2022-09-03T07:02:16.756Z,19.56
2022-09-03T07:03:16.647Z,19.28
2022-09-03T07:04:19.444Z,19.28
2022-09-03T07:05:16.657Z,19.72
2022-09-03T07:06:16.657Z,20.22
2022-09-03T07:07:16.668Z,19.06
2022-09-03T07:08:16.674Z,18.11
2022-09-03T07:09:16.665Z,16.5
2022-09-03T07:10:16.664Z,15.56
2022-09-03T07:11:16.670Z,15.39
2022-09-03T07:12:16.675Z,15
2022-09-03T07:13:16.656Z,15.17
2022-09-03T07:14:16.666Z,15.39
2022-09-03T07:15:16.669Z,15.22
2022-09-03T07:16:16.810Z,15.39
2022-09-03T07:17:16.667Z,15.22
2022-09-03T07:18:16.762Z,15.22
2022-09-03T07:19:16.673Z,15
2022-09-03T07:20:16.670Z,15.22
2022-09-03T07:21:16.664Z,15
2022-09-03T07:22:16.665Z,15.22
2022-09-03T07:23:16.666Z,15
2022-09-03T07:24:16.676Z,14.67
2022-09-03T07:25:16.677Z,14.56
2022-09-03T07:26:16.667Z,15
2022-09-03T07:27:16.667Z,15.39
2022-09-03T07:28:16.670Z,15.39
2022-09-03T07:29:16.672Z,16.06
2022-09-03T07:30:16.668Z,16.39
2022-09-03T07:31:16.678Z,16.5
2022-09-03T07:32:16.694Z,16.83
2022-09-03T07:33:16.673Z,16.83
2022-09-03T07:34:17.250Z,17
2022-09-03T07:35:16.667Z,17
2022-09-03T07:36:16.688Z,16.83
2022-09-03T07:37:16.675Z,16.83
2022-09-03T07:38:16.672Z,16.39
2022-09-03T07:39:16.856Z,16.06
2022-09-03T07:40:16.673Z,16.22
2022-09-03T07:41:17.571Z,16.06
2022-09-03T07:42:16.676Z,16.39
2022-09-03T07:43:16.670Z,16.83
2022-09-03T07:44:16.683Z,16.83
2022-09-03T07:45:16.677Z,16.83
2022-09-03T07:46:16.704Z,16.83
2022-09-03T07:47:16.678Z,16.83
2022-09-03T07:48:16.682Z,17
2022-09-03T07:49:16.685Z,17.17
2022-09-03T07:50:16.679Z,17
2022-09-03T07:51:16.680Z,17
2022-09-03T07:52:16.679Z,16.83
2022-09-03T07:53:16.682Z,17
2022-09-03T07:54:16.680Z,16.83
2022-09-03T07:55:16.687Z,16.83
2022-09-03T07:56:16.682Z,17
2022-09-03T07:57:16.683Z,17.17
2022-09-03T07:58:16.681Z,17
2022-09-03T07:59:16.689Z,16.83
2022-09-03T08:00:16.679Z,15.72
2022-09-03T08:01:16.734Z,15.89
2022-09-03T08:02:16.686Z,16.06
2022-09-03T08:03:16.683Z,16.39
2022-09-03T08:04:16.680Z,16.83
2022-09-03T08:05:16.679Z,16.83
2022-09-03T08:06:16.680Z,17.17
2022-09-03T08:07:16.684Z,17.78
2022-09-03T08:08:16.687Z,17.61
2022-09-03T08:09:16.678Z,17.78
2022-09-03T08:10:16.684Z,17.44
2022-09-03T08:11:16.689Z,17
2022-09-03T08:12:16.691Z,16.83
2022-09-03T08:13:16.689Z,16.83
2022-09-03T08:14:16.687Z,16.39
2022-09-03T08:15:16.691Z,16.22
2022-09-03T08:16:16.751Z,15.72
2022-09-03T08:17:16.692Z,16.22
2022-09-03T08:18:16.739Z,16.83
2022-09-03T08:19:16.695Z,17.78
2022-09-03T08:20:16.702Z,18.28
2022-09-03T08:21:16.692Z,18.11
2022-09-03T08:22:16.692Z,17.17
2022-09-03T08:23:16.689Z,16.83
2022-09-03T08:24:16.712Z,17.44
2022-09-03T08:25:16.701Z,18.11
2022-09-03T08:26:16.707Z,18.28
2022-09-03T08:27:16.705Z,18.56
2022-09-03T08:28:16.704Z,18.28
2022-09-03T08:29:16.716Z,17.28
2022-09-03T08:30:16.716Z,17
2022-09-03T08:31:16.760Z,17
2022-09-03T08:32:16.708Z,16.56
2022-09-03T08:33:16.705Z,16.56
2022-09-03T08:34:16.709Z,16.72
2022-09-03T08:35:16.718Z,16.22
2022-09-03T08:36:16.716Z,16.56
2022-09-03T08:37:16.710Z,16.39
2022-09-03T08:38:16.713Z,16.22
2022-09-03T08:39:16.876Z,16.89
2022-09-03T08:40:16.716Z,17.33
2022-09-03T08:41:16.720Z,17.33
2022-09-03T08:42:16.721Z,17.17
2022-09-03T08:43:16.716Z,17
2022-09-03T08:44:16.727Z,16.56
2022-09-03T08:45:16.729Z,16.56
2022-09-03T08:46:16.773Z,16.56
2022-09-03T08:47:16.723Z,16.89
2022-09-03T08:48:16.722Z,16.89
2022-09-03T08:49:16.730Z,16.56
2022-09-03T08:50:16.740Z,16.89
2022-09-03T08:51:16.731Z,17.17
2022-09-03T08:52:16.729Z,17.94
2022-09-03T08:53:16.744Z,18.44
2022-09-03T08:54:16.735Z,18.28
2022-09-03T08:55:16.743Z,18.61
2022-09-03T08:56:16.734Z,18.78
2022-09-03T08:57:16.737Z,18.28
2022-09-03T08:58:16.794Z,17.94
2022-09-03T08:59:16.737Z,17.33
2022-09-03T09:00:16.733Z,17.67
2022-09-03T09:01:16.784Z,17.94
2022-09-03T09:02:16.859Z,17.83
2022-09-03T09:03:16.742Z,17.5
2022-09-03T09:04:16.743Z,17.83
2022-09-03T09:05:16.811Z,17.17
2022-09-03T09:06:16.749Z,16.89
2022-09-03T09:07:16.749Z,17
2022-09-03T09:08:16.745Z,17
2022-09-03T09:09:16.750Z,17.17
2022-09-03T09:10:16.755Z,17.5
2022-09-03T09:11:16.756Z,17.5
2022-09-03T09:12:16.751Z,17.67
2022-09-03T09:13:16.747Z,17.67
2022-09-03T09:14:16.751Z,17.94
2022-09-03T09:15:16.757Z,18.17
2022-09-03T09:16:16.791Z,17.94
2022-09-03T09:17:16.756Z,18.28
2022-09-03T09:18:16.801Z,18.94
2022-09-03T09:19:16.745Z,19.94
2022-09-03T09:20:16.752Z,20.83
2022-09-03T09:21:21.088Z,20.22
2022-09-03T09:22:16.766Z,21.22
2022-09-03T09:23:16.752Z,21.72
2022-09-03T09:24:16.752Z,21.89
2022-09-03T09:25:16.761Z,21.22
2022-09-03T09:26:16.758Z,20.83
2022-09-03T09:27:16.765Z,19.94
2022-09-03T09:28:16.774Z,19.28
2022-09-03T09:29:16.761Z,19.06
2022-09-03T09:30:16.760Z,18.78
2022-09-03T09:31:16.826Z,19.06
2022-09-03T09:32:16.766Z,18.78
2022-09-03T09:33:16.762Z,18.28
2022-09-03T09:34:16.769Z,18.44
2022-09-03T09:35:16.765Z,18.44
2022-09-03T09:36:16.770Z,18.44
2022-09-03T09:37:16.765Z,18.61
2022-09-03T09:38:16.769Z,19.28
2022-09-03T09:39:16.797Z,18.78
2022-09-03T09:40:16.769Z,19.06
2022-09-03T09:41:16.768Z,19.44
2022-09-03T09:42:16.770Z,19.44
2022-09-03T09:43:16.766Z,19.56
2022-09-03T09:44:16.771Z,19.06
2022-09-03T09:45:16.770Z,18.94
2022-09-03T09:46:16.825Z,18.44
2022-09-03T09:47:16.780Z,18.94
2022-09-03T09:48:16.779Z,19.44
2022-09-03T09:49:16.781Z,19.78
2022-09-03T09:50:25.173Z,19.06
2022-09-03T09:51:16.776Z,18.78
2022-09-03T09:52:16.782Z,19.78
2022-09-03T09:53:16.773Z,20.11
2022-09-03T09:54:16.775Z,20.11
2022-09-03T09:55:16.772Z,20.56
2022-09-03T09:56:16.779Z,20.22
2022-09-03T09:57:16.780Z,20.83
2022-09-03T09:58:16.781Z,20.83
2022-09-03T09:59:16.782Z,20.33
2022-09-03T10:00:16.863Z,20.11
2022-09-03T10:01:16.806Z,20.56
2022-09-03T10:02:22.258Z,19.94
2022-09-03T10:03:16.858Z,19.94
2022-09-03T10:04:16.782Z,19.44
2022-09-03T10:05:16.783Z,19.94
2022-09-03T10:06:16.787Z,20.11
2022-09-03T10:07:16.783Z,20.11
2022-09-03T10:08:16.790Z,19.56
2022-09-03T10:09:16.778Z,19.44
2022-09-03T10:10:16.790Z,19.78
2022-09-03T10:11:16.793Z,20.22
2022-09-03T10:12:16.785Z,20.33
2022-09-03T10:13:16.796Z,21
2022-09-03T10:14:16.792Z,20.72
2022-09-03T10:15:16.793Z,20.56
2022-09-03T10:16:16.835Z,20.22
2022-09-03T10:17:16.793Z,20.56
2022-09-03T10:18:16.889Z,20.33
2022-09-03T10:19:16.796Z,20.22
2022-09-03T10:20:16.805Z,20.33
2022-09-03T10:21:16.799Z,20.83
2022-09-03T10:22:16.796Z,21.39
2022-09-03T10:23:16.794Z,21.89
2022-09-03T10:24:16.790Z,22.39
2022-09-03T10:25:16.809Z,21.39
2022-09-03T10:26:16.817Z,20.83
2022-09-03T10:27:16.799Z,21.39
2022-09-03T10:28:16.794Z,21
2022-09-03T10:29:16.797Z,20.83
2022-09-03T10:30:16.798Z,20.72
2022-09-03T10:31:16.855Z,20.72
2022-09-03T10:32:16.800Z,20.83
2022-09-03T10:33:16.809Z,20.72
2022-09-03T10:34:16.795Z,21.39
2022-09-03T10:35:16.795Z,20.83
2022-09-03T10:36:16.803Z,21.22
2022-09-03T10:37:16.797Z,21.39
2022-09-03T10:38:16.799Z,21.5
2022-09-03T10:39:16.863Z,21.67
2022-09-03T10:40:16.833Z,22.39
2022-09-03T10:41:16.805Z,22.44
2022-09-03T10:42:16.801Z,22
2022-09-03T10:43:16.811Z,21.56
2022-09-03T10:44:16.809Z,21.89
2022-09-03T10:45:16.809Z,21.89
2022-09-03T10:46:20.659Z,22.06
2022-09-03T10:47:16.816Z,22.61
2022-09-03T10:48:16.812Z,23.44
2022-09-03T10:49:16.807Z,24.17
2022-09-03T10:50:16.809Z,24.33
2022-09-03T10:51:16.809Z,24.17
2022-09-03T10:52:16.815Z,23.11
2022-09-03T10:53:16.813Z,23.11
2022-09-03T10:54:16.815Z,23.44
2022-09-03T10:55:16.812Z,24.67
2022-09-03T10:56:16.808Z,24.67
2022-09-03T10:57:16.817Z,24.67
2022-09-03T10:58:16.865Z,24.67
2022-09-03T10:59:16.815Z,24.17
2022-09-03T11:00:16.812Z,24
2022-09-03T11:01:16.882Z,23.67
2022-09-03T11:02:16.852Z,22.94
2022-09-03T11:03:21.030Z,22.06
2022-09-03T11:04:16.813Z,21.89
2022-09-03T11:05:16.814Z,22.78
2022-09-03T11:06:16.811Z,22.39
2022-09-03T11:07:16.823Z,23.67
2022-09-03T11:08:16.868Z,24.17
2022-09-03T11:09:16.820Z,23.83
2022-09-03T11:10:16.815Z,24.17
2022-09-03T11:11:16.820Z,24.89
2022-09-03T11:12:16.816Z,24.5
2022-09-03T11:13:16.816Z,24.33
2022-09-03T11:14:16.818Z,24.67
2022-09-03T11:15:16.822Z,25.22
2022-09-03T11:16:16.848Z,24
2022-09-03T11:17:16.825Z,23.67
2022-09-03T11:18:16.907Z,23.11
2022-09-03T11:19:16.814Z,22.61
2022-09-03T11:20:16.827Z,22.78
2022-09-03T11:21:16.822Z,22.22
2022-09-03T11:22:17.013Z,22.61
2022-09-03T11:23:16.819Z,23.11
2022-09-03T11:24:16.835Z,22.61
2022-09-03T11:25:16.825Z,22.94
2022-09-03T11:26:16.819Z,23.11
2022-09-03T11:27:16.830Z,22.61
2022-09-03T11:28:16.829Z,23.11
2022-09-03T11:29:16.825Z,23.67
2022-09-03T11:30:16.826Z,23.11
2022-09-03T11:31:16.907Z,23.11
2022-09-03T11:32:16.826Z,23.11
2022-09-03T11:33:16.827Z,23.11
2022-09-03T11:34:17.876Z,22.78
2022-09-03T11:35:16.826Z,22.78
2022-09-03T11:36:16.821Z,22.61
2022-09-03T11:37:16.828Z,23.11
2022-09-03T11:38:16.832Z,23.11
2022-09-03T11:39:16.950Z,22.61
2022-09-03T11:40:16.833Z,22.22
2022-09-03T11:41:16.828Z,22.39
2022-09-03T11:42:16.837Z,23.11
2022-09-03T11:43:16.829Z,24
2022-09-03T11:44:16.827Z,23.83
2022-09-03T11:45:16.828Z,23.44
2022-09-03T11:46:16.849Z,23.28
2022-09-03T11:47:16.827Z,23.44
2022-09-03T11:48:16.825Z,22.39
2022-09-03T11:49:16.830Z,22.61
2022-09-03T11:50:16.824Z,22.39
2022-09-03T11:51:16.824Z,22.61
2022-09-03T11:52:16.830Z,23.11
2022-09-03T11:53:16.852Z,22.94
2022-09-03T11:54:16.834Z,23.28
2022-09-03T11:55:16.827Z,23.11
2022-09-03T11:56:16.828Z,23.11
2022-09-03T11:57:16.827Z,23.11
2022-09-03T11:58:16.825Z,23.28
2022-09-03T11:59:16.820Z,23.11
2022-09-03T12:00:16.831Z,24.17
2022-09-03T12:01:16.838Z,24
2022-09-03T12:02:16.893Z,23.83
2022-09-03T12:03:16.865Z,23.67
2022-09-03T12:04:16.850Z,23.83
2022-09-03T12:05:16.822Z,23.83
2022-09-03T12:06:16.829Z,23.83
2022-09-03T12:07:17.545Z,23.83
2022-09-03T12:08:16.825Z,23.28
2022-09-03T12:09:16.831Z,23.44
2022-09-03T12:10:16.831Z,23.44
2022-09-03T12:11:16.834Z,24
2022-09-03T12:12:16.830Z,23.83
2022-09-03T12:13:16.889Z,23.83
2022-09-03T12:14:16.836Z,24.33
2022-09-03T12:15:16.827Z,24.33
2022-09-03T12:16:16.924Z,24
2022-09-03T12:17:16.831Z,23.11
2022-09-03T12:18:16.844Z,23.28
2022-09-03T12:19:16.835Z,23.28
2022-09-03T12:20:16.828Z,22.78
2022-09-03T12:21:16.839Z,22.39
2022-09-03T12:22:16.830Z,22.94
2022-09-03T12:23:16.954Z,22.78
2022-09-03T12:24:16.841Z,22.06
2022-09-03T12:25:16.849Z,22.22
2022-09-03T12:26:16.845Z,22.39
2022-09-03T12:27:16.850Z,22.94
2022-09-03T12:28:16.849Z,22.78
2022-09-03T12:29:16.851Z,22.61
2022-09-03T12:30:16.847Z,22.78
2022-09-03T12:31:16.871Z,22.94
2022-09-03T12:32:16.848Z,23.28
2022-09-03T12:33:16.878Z,23.28
2022-09-03T12:34:16.849Z,22.78
2022-09-03T12:35:58.041Z,22.78
2022-09-03T12:36:16.859Z,22.94
2022-09-03T12:37:16.964Z,22.61
2022-09-03T12:38:18.658Z,22.78
2022-09-03T12:39:17.059Z,22.78
2022-09-03T12:40:16.875Z,23.28
2022-09-03T12:41:23.676Z,23.11
2022-09-03T12:42:16.862Z,23.11
2022-09-03T12:44:16.860Z,22.61
2022-09-03T12:45:16.868Z,22.78
2022-09-03T12:46:17.713Z,23.28
2022-09-03T12:48:16.870Z,23.44
2022-09-03T12:49:32.378Z,23.11
2022-09-03T12:50:17.196Z,22.78
2022-09-03T12:52:16.874Z,22.94
2022-09-03T12:53:16.888Z,22.78
2022-09-03T12:54:16.881Z,22.78
2022-09-03T12:55:16.884Z,22.94
2022-09-03T12:56:16.928Z,22.78
2022-09-03T12:57:16.882Z,22.22
2022-09-03T12:58:16.877Z,22.06
2022-09-03T12:59:16.877Z,22.22
2022-09-03T13:00:16.876Z,22.06
2022-09-03T13:01:17.020Z,21.94
2022-09-03T13:02:16.956Z,22.39
2022-09-03T13:03:16.889Z,22.61
2022-09-03T13:04:16.880Z,22.22
2022-09-03T13:05:16.899Z,22.94
2022-09-03T13:06:16.885Z,22.78